Los Antiguos, Argentina
Current Conditions -  °F | °C
As of 2:00 AM on Tuesday 23 Dec 2014 (Local Time) from SCAP Reporting Station
Overcast Overcast  
Wind Chill: 12°   Ceiling: 4800
Heat Index: 12°   Visibility: NA
Dew Point:   Wind: 12mph
Humidity: 62%   Direction: 200°SSW
Pressure: 30.24"   Gusts: NA
Location:  46.55°S, 71.62°W
Report Text: SCAP 230500Z AUTO 20010KT 170V250 //// // OVC048 12/05 Q1024
Loading
Personal Weather Stations






























Interactive Weather Map New forecast layout! Learn more

10-Day Weather Forecast

Advertisements
Track Severe Weather on mobile